createdAt,value
2018-10-21T00:01:43.927Z,77.82
2018-10-21T00:03:56.239Z,78.36
2018-10-21T00:06:08.436Z,77.83
2018-10-21T00:08:20.614Z,77.88
2018-10-21T00:10:32.811Z,77.53
2018-10-21T00:12:45.019Z,78.24
2018-10-21T00:14:57.324Z,78.48
2018-10-21T00:17:09.464Z,77.87
2018-10-21T00:19:21.677Z,78.17
2018-10-21T00:21:33.938Z,77.84
2018-10-21T00:23:46.143Z,77.46
2018-10-21T00:25:58.355Z,77.55
2018-10-21T00:28:10.626Z,77.21
2018-10-21T00:30:22.844Z,76.97
2018-10-21T00:32:40.667Z,77.75
2018-10-21T00:34:52.913Z,77.43
2018-10-21T00:37:05.332Z,78.22
2018-10-21T00:39:17.631Z,78.20
2018-10-21T00:41:29.780Z,77.83
2018-10-21T00:43:42.000Z,78.04
2018-10-21T00:45:54.251Z,78.39
2018-10-21T00:48:06.470Z,78.04
2018-10-21T00:50:18.683Z,77.94
2018-10-21T00:52:30.906Z,77.43
2018-10-21T00:54:43.081Z,77.89
2018-10-21T00:56:55.345Z,77.19
2018-10-21T00:59:08.279Z,77.82
2018-10-21T01:01:20.523Z,77.98
2018-10-21T01:03:32.734Z,78.17
2018-10-21T01:05:44.930Z,78.59
2018-10-21T01:07:57.192Z,77.24
2018-10-21T01:10:10.618Z,77.58
2018-10-21T01:12:22.838Z,78.08
2018-10-21T01:14:35.039Z,77.90
2018-10-21T01:16:47.262Z,77.39
2018-10-21T01:18:59.482Z,76.44
2018-10-21T01:21:11.734Z,77.78
2018-10-21T01:23:23.906Z,77.22
2018-10-21T01:25:36.107Z,78.54
2018-10-21T01:27:48.330Z,78.07
2018-10-21T01:30:00.537Z,78.70
2018-10-21T01:32:16.324Z,79.08
2018-10-21T01:34:28.516Z,79.24
2018-10-21T01:36:40.832Z,79.10
2018-10-21T01:38:53.122Z,78.36
2018-10-21T01:41:05.352Z,78.51
2018-10-21T01:43:28.877Z,78.46
2018-10-21T01:45:41.118Z,77.92
2018-10-21T01:47:53.704Z,78.79
2018-10-21T01:50:05.943Z,78.84
2018-10-21T01:52:18.149Z,79.14
2018-10-21T01:54:30.358Z,78.75
2018-10-21T01:56:42.582Z,78.69
2018-10-21T01:58:54.810Z,78.93
2018-10-21T02:01:07.007Z,78.15
2018-10-21T02:03:19.274Z,78.13
2018-10-21T02:05:32.004Z,77.70
2018-10-21T02:07:44.255Z,78.22
2018-10-21T02:09:56.483Z,78.35
2018-10-21T02:12:08.707Z,78.51
2018-10-21T02:14:20.915Z,77.97
2018-10-21T02:16:33.137Z,78.48
2018-10-21T02:18:45.312Z,78.15
2018-10-21T02:20:57.554Z,77.55
2018-10-21T02:23:09.727Z,77.59
2018-10-21T02:25:22.016Z,76.78
2018-10-21T02:27:34.379Z,76.99
2018-10-21T02:29:46.575Z,77.30
2018-10-21T02:31:58.835Z,77.87
2018-10-21T02:34:11.012Z,77.69
2018-10-21T02:36:23.222Z,78.27
2018-10-21T02:38:35.395Z,78.68
2018-10-21T02:41:25.380Z,79.32
2018-10-21T02:43:37.683Z,78.24
2018-10-21T02:45:49.942Z,79.40
2018-10-21T02:48:02.159Z,78.67
2018-10-21T02:50:14.376Z,78.96
2018-10-21T02:52:26.600Z,79.23
2018-10-21T02:54:38.862Z,79.51
2018-10-21T02:56:51.369Z,79.38
2018-10-21T02:59:03.993Z,78.91
2018-10-21T03:01:16.203Z,79.07
2018-10-21T03:03:28.391Z,78.34
2018-10-21T03:05:40.627Z,77.82
2018-10-21T03:07:52.902Z,78.57
2018-10-21T03:10:05.147Z,78.63
2018-10-21T03:12:17.402Z,78.14
2018-10-21T03:14:29.607Z,78.52
2018-10-21T03:16:41.987Z,77.53
2018-10-21T03:18:54.194Z,77.56
2018-10-21T03:21:06.460Z,78.56
2018-10-21T03:23:18.587Z,78.87
2018-10-21T03:25:30.792Z,78.64
2018-10-21T03:27:42.979Z,78.66
2018-10-21T03:29:55.219Z,77.87
2018-10-21T03:32:07.392Z,77.95
2018-10-21T03:34:19.589Z,77.97
2018-10-21T03:36:31.819Z,79.19
2018-10-21T03:38:44.022Z,79.79
2018-10-21T03:40:56.315Z,80.12
2018-10-21T03:43:08.577Z,79.30
2018-10-21T03:45:20.768Z,80.06
2018-10-21T03:47:32.944Z,80.10
2018-10-21T03:49:45.140Z,79.93
2018-10-21T03:51:57.343Z,79.40
2018-10-21T03:54:10.471Z,79.02
2018-10-21T03:56:22.656Z,79.61
2018-10-21T03:58:34.824Z,79.22
2018-10-21T04:00:47.071Z,79.92
2018-10-21T04:02:59.266Z,79.57
2018-10-21T04:05:11.759Z,79.61
2018-10-21T04:07:23.980Z,79.05
2018-10-21T04:09:36.218Z,78.95
2018-10-21T04:11:48.394Z,78.47
2018-10-21T04:14:01.554Z,79.65
2018-10-21T04:16:13.807Z,80.19
2018-10-21T04:18:26.023Z,80.68
2018-10-21T04:20:38.252Z,79.88
2018-10-21T04:22:53.546Z,79.42
2018-10-21T04:25:06.682Z,80.00
2018-10-21T04:27:18.870Z,80.02
2018-10-21T04:29:31.052Z,80.60
2018-10-21T04:31:43.251Z,80.68
2018-10-21T04:33:55.505Z,80.70
2018-10-21T04:36:09.392Z,80.58
2018-10-21T04:38:44.002Z,80.25
2018-10-21T04:40:56.254Z,79.86
2018-10-21T04:43:08.469Z,79.86
2018-10-21T04:45:21.760Z,79.80
2018-10-21T04:47:34.019Z,79.78
2018-10-21T04:49:46.232Z,78.94
2018-10-21T04:51:58.458Z,80.05
2018-10-21T04:54:10.651Z,79.46
2018-10-21T04:56:22.878Z,79.94
2018-10-21T04:58:35.066Z,79.56
2018-10-21T05:00:47.355Z,80.38
2018-10-21T05:02:59.452Z,80.71
2018-10-21T05:05:12.749Z,80.95
2018-10-21T05:07:25.015Z,80.33
2018-10-21T05:09:37.196Z,80.99
2018-10-21T05:11:49.407Z,80.92
2018-10-21T05:14:01.592Z,81.06
2018-10-21T05:16:13.806Z,81.40
2018-10-21T05:18:26.017Z,81.28
2018-10-21T05:20:38.202Z,81.76
2018-10-21T05:22:50.394Z,81.17
2018-10-21T05:25:02.597Z,81.42
2018-10-21T05:27:14.847Z,81.33
2018-10-21T05:29:27.067Z,81.69
2018-10-21T05:31:39.258Z,81.08
2018-10-21T05:33:51.742Z,80.32
2018-10-21T05:36:04.192Z,80.90
2018-10-21T05:38:16.411Z,80.97
2018-10-21T05:40:28.702Z,80.55
2018-10-21T05:42:41.256Z,79.75
2018-10-21T05:44:54.390Z,80.19
2018-10-21T05:47:06.614Z,81.31
2018-10-21T05:49:18.860Z,81.22
2018-10-21T05:51:31.084Z,81.10
2018-10-21T05:53:43.297Z,80.16
2018-10-21T05:55:55.510Z,80.44
2018-10-21T05:58:07.801Z,80.76
2018-10-21T06:00:20.312Z,81.42
2018-10-21T06:02:32.526Z,81.40
2018-10-21T06:04:44.726Z,81.43
2018-10-21T06:06:56.935Z,81.49
2018-10-21T06:09:10.594Z,81.18
2018-10-21T06:11:23.788Z,80.06
2018-10-21T06:13:35.951Z,81.14
2018-10-21T06:15:48.182Z,80.62
2018-10-21T06:18:00.860Z,81.31
2018-10-21T06:20:18.013Z,81.25
2018-10-21T06:22:35.642Z,80.85
2018-10-21T06:24:47.856Z,80.40
2018-10-21T06:27:00.104Z,79.83
2018-10-21T06:29:12.395Z,80.69
2018-10-21T06:31:24.631Z,80.38
2018-10-21T06:33:36.820Z,80.60
2018-10-21T06:35:49.129Z,79.82
2018-10-21T06:38:01.334Z,80.55
2018-10-21T06:40:13.595Z,80.26
2018-10-21T06:42:28.914Z,79.75
2018-10-21T06:44:41.144Z,79.55
2018-10-21T06:46:53.360Z,79.49
2018-10-21T06:49:05.588Z,79.01
2018-10-21T06:51:17.775Z,78.99
2018-10-21T06:53:30.891Z,79.38
2018-10-21T06:55:43.442Z,78.74
2018-10-21T06:57:55.675Z,79.14
2018-10-21T07:00:08.363Z,78.54
2018-10-21T07:02:20.567Z,78.04
2018-10-21T07:04:32.794Z,78.36
2018-10-21T07:06:45.983Z,78.18
2018-10-21T07:08:59.650Z,77.87
2018-10-21T07:11:11.899Z,77.71
2018-10-21T07:13:24.129Z,78.48
2018-10-21T07:15:36.350Z,78.77
2018-10-21T07:17:48.588Z,78.07
2018-10-21T07:20:00.831Z,77.39
2018-10-21T07:22:13.120Z,77.85
2018-10-21T07:24:25.282Z,77.71
2018-10-21T07:26:40.252Z,77.36
2018-10-21T07:28:52.492Z,76.10
2018-10-21T07:31:04.833Z,75.21
2018-10-21T07:33:17.059Z,75.41
2018-10-21T07:35:30.124Z,75.13
2018-10-21T07:37:43.119Z,74.68
2018-10-21T07:39:55.364Z,74.93
2018-10-21T07:42:07.589Z,75.06
2018-10-21T07:44:19.859Z,74.53
2018-10-21T07:46:32.188Z,74.33
2018-10-21T07:48:48.304Z,74.46
2018-10-21T07:51:00.548Z,73.75
2018-10-21T07:53:12.871Z,73.71
2018-10-21T07:55:25.180Z,74.29
2018-10-21T07:57:39.227Z,73.37
2018-10-21T07:59:51.501Z,73.06
2018-10-21T08:02:05.543Z,73.28
2018-10-21T08:04:18.780Z,73.24
2018-10-21T08:06:42.335Z,71.96
2018-10-21T08:08:54.598Z,71.24
2018-10-21T08:11:06.918Z,71.11
2018-10-21T08:13:20.519Z,72.01
2018-10-21T08:15:34.693Z,70.73
2018-10-21T08:17:46.903Z,69.78
2018-10-21T08:19:59.156Z,69.19
2018-10-21T08:22:11.453Z,68.34
2018-10-21T08:24:23.623Z,68.79
2018-10-21T08:26:36.746Z,69.29
2018-10-21T08:28:48.942Z,67.41
2018-10-21T08:31:02.025Z,68.75
2018-10-21T08:33:14.278Z,68.19
2018-10-21T08:35:26.542Z,66.91
2018-10-21T08:37:38.775Z,64.82
2018-10-21T08:39:51.162Z,62.14
2018-10-21T08:42:03.438Z,62.29
2018-10-21T08:44:15.672Z,59.44
2018-10-21T08:46:27.936Z,58.39
2018-10-21T08:48:40.243Z,58.90
2018-10-21T08:50:52.506Z,58.21
2018-10-21T08:53:04.826Z,59.85
2018-10-21T08:55:17.141Z,58.69
2018-10-21T08:57:29.380Z,59.04
2018-10-21T08:59:41.764Z,57.04
2018-10-21T09:01:54.295Z,57.25
2018-10-21T09:04:11.495Z,56.40
2018-10-21T09:06:23.764Z,56.11
2018-10-21T09:08:35.991Z,55.55
2018-10-21T09:10:48.266Z,55.32
2018-10-21T09:13:00.606Z,56.02
2018-10-21T09:15:14.769Z,54.56
2018-10-21T09:17:26.980Z,54.49
2018-10-21T09:19:39.208Z,52.60
2018-10-21T09:21:51.500Z,51.81
2018-10-21T09:24:04.065Z,51.81
2018-10-21T09:26:16.286Z,50.94
2018-10-21T09:28:28.531Z,50.26
2018-10-21T09:30:41.767Z,50.87
2018-10-21T09:32:54.877Z,49.90
2018-10-21T09:35:08.998Z,50.04
2018-10-21T09:37:21.248Z,49.27
2018-10-21T09:39:33.538Z,48.19
2018-10-21T09:41:46.680Z,48.88
2018-10-21T09:43:58.920Z,48.88
2018-10-21T09:46:11.282Z,48.79
2018-10-21T09:48:25.460Z,47.96
2018-10-21T09:50:38.614Z,47.44
2018-10-21T09:52:50.894Z,48.60
2018-10-21T09:55:03.300Z,46.83
2018-10-21T09:57:15.558Z,46.53
2018-10-21T09:59:29.663Z,45.33
2018-10-21T10:01:47.651Z,45.07
2018-10-21T10:03:59.974Z,45.24
2018-10-21T10:06:12.214Z,46.03
2018-10-21T10:08:24.483Z,44.64
2018-10-21T10:10:38.561Z,44.91
2018-10-21T10:12:50.775Z,45.19
2018-10-21T10:15:03.091Z,44.30
2018-10-21T10:17:15.422Z,45.63
2018-10-21T10:19:27.696Z,45.25
2018-10-21T10:21:39.977Z,46.06
2018-10-21T10:23:52.276Z,45.80
2018-10-21T10:26:04.543Z,46.17
2018-10-21T10:28:17.642Z,45.15
2018-10-21T10:30:29.883Z,45.83
2018-10-21T10:32:42.928Z,45.63
2018-10-21T10:34:55.189Z,46.18
2018-10-21T10:37:07.492Z,46.64
2018-10-21T10:39:19.691Z,45.54
2018-10-21T10:41:31.989Z,44.37
2018-10-21T10:43:47.957Z,44.93
2018-10-21T10:46:06.175Z,43.13
2018-10-21T10:48:18.383Z,42.53
2018-10-21T10:50:34.597Z,43.52
2018-10-21T10:52:46.884Z,43.99
2018-10-21T10:54:59.169Z,44.44
2018-10-21T10:57:11.383Z,44.39
2018-10-21T10:59:23.640Z,44.22
2018-10-21T11:01:35.873Z,43.20
2018-10-21T11:03:48.954Z,44.02
2018-10-21T11:06:01.206Z,42.49
2018-10-21T11:08:13.446Z,44.12
2018-10-21T11:10:25.757Z,43.54
2018-10-21T11:12:37.971Z,42.51
2018-10-21T11:14:57.060Z,45.14
2018-10-21T11:17:09.329Z,44.05
2018-10-21T11:19:23.128Z,43.71
2018-10-21T11:21:35.411Z,43.97
2018-10-21T11:23:47.654Z,45.93
2018-10-21T11:26:02.000Z,43.58
2018-10-21T11:28:14.334Z,43.10
2018-10-21T11:30:26.517Z,43.35
2018-10-21T11:32:38.783Z,42.48
2018-10-21T11:34:51.051Z,43.83
2018-10-21T11:37:03.298Z,44.05
2018-10-21T11:39:15.527Z,44.40
2018-10-21T11:41:27.810Z,44.50
2018-10-21T11:43:40.074Z,44.05
2018-10-21T11:45:52.301Z,42.89
2018-10-21T11:48:04.581Z,41.74
2018-10-21T11:50:16.828Z,41.21
2018-10-21T11:52:29.060Z,40.57
2018-10-21T11:54:41.332Z,40.10
2018-10-21T11:56:53.642Z,39.26
2018-10-21T11:59:06.784Z,39.01
2018-10-21T12:01:19.101Z,38.87
2018-10-21T12:03:32.313Z,39.23
2018-10-21T12:05:44.636Z,40.84
2018-10-21T12:07:56.919Z,40.31
2018-10-21T12:10:09.294Z,40.74
2018-10-21T12:12:21.560Z,40.43
2018-10-21T12:14:33.806Z,40.05
2018-10-21T12:16:46.094Z,41.12
2018-10-21T12:19:03.286Z,39.81
2018-10-21T12:21:15.556Z,39.73
2018-10-21T12:23:27.829Z,40.15
2018-10-21T12:25:40.045Z,39.63
2018-10-21T12:27:52.333Z,39.50
2018-10-21T12:30:05.864Z,39.49
2018-10-21T12:32:18.134Z,40.96
2018-10-21T12:34:30.426Z,38.84
2018-10-21T12:36:42.745Z,38.73
2018-10-21T12:38:55.008Z,38.42
2018-10-21T12:41:07.545Z,39.20
2018-10-21T12:43:19.724Z,38.94
2018-10-21T12:45:32.016Z,38.12
2018-10-21T12:47:44.279Z,37.93
2018-10-21T12:49:56.560Z,38.07
2018-10-21T12:52:08.874Z,36.92
2018-10-21T12:54:21.101Z,37.78
2018-10-21T12:56:33.316Z,37.69
2018-10-21T12:58:45.600Z,38.89
2018-10-21T13:00:57.857Z,37.88
2018-10-21T13:03:10.120Z,36.54
2018-10-21T13:05:22.395Z,38.51
2018-10-21T13:07:34.675Z,37.62
2018-10-21T13:09:46.913Z,37.25
2018-10-21T13:11:59.177Z,36.73
2018-10-21T13:14:11.432Z,37.53
2018-10-21T13:16:23.779Z,37.19
2018-10-21T13:18:36.026Z,38.90
2018-10-21T13:20:48.322Z,37.75
2018-10-21T13:23:00.547Z,37.08
2018-10-21T13:25:12.897Z,37.08
2018-10-21T13:27:25.047Z,37.20
2018-10-21T13:29:37.333Z,37.70
2018-10-21T13:31:49.551Z,37.50
2018-10-21T13:34:02.654Z,37.85
2018-10-21T13:36:15.952Z,37.67
2018-10-21T13:38:28.207Z,36.81
2018-10-21T13:40:40.537Z,37.95
2018-10-21T13:42:52.817Z,36.79
2018-10-21T13:45:05.570Z,36.74
2018-10-21T13:47:17.950Z,37.39
2018-10-21T13:49:30.178Z,37.27
2018-10-21T13:51:44.400Z,36.73
2018-10-21T13:53:56.546Z,37.08
2018-10-21T13:56:08.774Z,36.56
2018-10-21T13:58:21.003Z,37.07
2018-10-21T14:00:33.386Z,37.63
2018-10-21T14:02:45.649Z,37.47
2018-10-21T14:04:57.896Z,37.46
2018-10-21T14:07:10.231Z,37.26
2018-10-21T14:09:23.414Z,38.32
2018-10-21T14:11:35.687Z,37.77
2018-10-21T14:13:47.965Z,37.34
2018-10-21T14:16:00.331Z,37.71
2018-10-21T14:18:12.481Z,37.66
2018-10-21T14:20:24.711Z,37.96
2018-10-21T14:22:42.791Z,37.05
2018-10-21T14:24:55.078Z,37.36
2018-10-21T14:27:07.365Z,38.24
2018-10-21T14:29:19.841Z,37.18
2018-10-21T14:31:32.040Z,37.58
2018-10-21T14:33:44.345Z,37.11
2018-10-21T14:35:59.563Z,38.33
2018-10-21T14:38:12.908Z,37.18
2018-10-21T14:40:25.046Z,38.06
2018-10-21T14:42:38.572Z,38.52
2018-10-21T14:44:50.914Z,38.33
2018-10-21T14:47:03.260Z,38.08
2018-10-21T14:49:15.508Z,38.17
2018-10-21T14:51:27.747Z,37.99
2018-10-21T14:53:39.996Z,38.52
2018-10-21T14:55:52.252Z,38.06
2018-10-21T14:58:05.452Z,37.30
2018-10-21T15:00:17.800Z,38.61
2018-10-21T15:02:29.986Z,38.72
2018-10-21T15:04:42.282Z,38.75
2018-10-21T15:06:54.722Z,38.33
2018-10-21T15:09:11.100Z,39.47
2018-10-21T15:11:23.367Z,39.46
2018-10-21T15:13:35.659Z,38.77
2018-10-21T15:15:48.035Z,38.89
2018-10-21T15:18:05.323Z,40.06
2018-10-21T15:20:17.561Z,39.39
2018-10-21T15:22:29.803Z,42.92
2018-10-21T15:24:42.031Z,41.80
2018-10-21T15:26:54.253Z,40.88
2018-10-21T15:29:06.495Z,39.58
2018-10-21T15:31:18.723Z,39.05
2018-10-21T15:33:31.066Z,39.16
2018-10-21T15:35:43.347Z,39.64
2018-10-21T15:37:55.599Z,39.29
2018-10-21T15:40:08.860Z,39.37
2018-10-21T15:42:21.057Z,40.38
2018-10-21T15:44:33.337Z,40.07
2018-10-21T15:46:45.646Z,39.96
2018-10-21T15:48:57.941Z,40.35
2018-10-21T15:51:10.933Z,40.48
2018-10-21T15:53:23.155Z,41.41
2018-10-21T15:55:35.494Z,41.97
2018-10-21T15:57:47.913Z,41.81
2018-10-21T15:59:59.970Z,41.26
2018-10-21T16:02:12.382Z,41.45
2018-10-21T16:04:25.683Z,40.92
2018-10-21T16:06:37.932Z,41.80
2018-10-21T16:08:50.216Z,42.09
2018-10-21T16:11:02.468Z,41.68
2018-10-21T16:13:17.497Z,42.05
2018-10-21T16:15:29.750Z,42.48
2018-10-21T16:17:42.563Z,42.38
2018-10-21T16:19:54.888Z,41.65
2018-10-21T16:22:07.550Z,41.76
2018-10-21T16:24:19.810Z,41.51
2018-10-21T16:26:32.195Z,41.76
2018-10-21T16:28:44.385Z,43.05
2018-10-21T16:30:56.599Z,43.36
2018-10-21T16:33:08.864Z,44.62
2018-10-21T16:35:21.186Z,45.58
2018-10-21T16:37:33.554Z,47.18
2018-10-21T16:39:45.806Z,47.78
2018-10-21T16:41:58.179Z,47.39
2018-10-21T16:44:10.458Z,48.11
2018-10-21T16:46:22.809Z,48.16
2018-10-21T16:48:35.113Z,49.18
2018-10-21T16:50:47.393Z,48.66
2018-10-21T16:52:59.737Z,49.53
2018-10-21T16:55:12.639Z,49.53
2018-10-21T16:57:24.979Z,48.86
2018-10-21T16:59:37.318Z,49.14
2018-10-21T17:01:49.475Z,49.58
2018-10-21T17:04:02.018Z,49.61
2018-10-21T17:06:14.278Z,49.67
2018-10-21T17:08:26.689Z,51.05
2018-10-21T17:10:39.183Z,51.60
2018-10-21T17:12:51.188Z,51.55
2018-10-21T17:15:03.624Z,52.00
2018-10-21T17:17:16.483Z,52.50
2018-10-21T17:19:28.694Z,52.75
2018-10-21T17:21:40.944Z,52.91
2018-10-21T17:23:53.254Z,52.19
2018-10-21T17:26:05.560Z,53.12
2018-10-21T17:28:17.969Z,53.44
2018-10-21T17:30:30.271Z,53.18
2018-10-21T17:32:42.871Z,54.46
2018-10-21T17:34:55.100Z,54.02
2018-10-21T17:37:07.395Z,54.28
2018-10-21T17:39:19.669Z,54.63
2018-10-21T17:41:31.902Z,54.87
2018-10-21T17:43:44.204Z,55.18
2018-10-21T17:45:56.497Z,55.56
2018-10-21T17:48:08.710Z,55.75
2018-10-21T17:50:21.039Z,56.26
2018-10-21T17:52:33.374Z,55.26
2018-10-21T17:54:45.640Z,55.83
2018-10-21T17:56:58.969Z,56.12
2018-10-21T17:59:11.476Z,56.74
2018-10-21T18:01:24.109Z,56.33
2018-10-21T18:03:36.375Z,57.11
2018-10-21T18:05:48.615Z,57.10
2018-10-21T18:08:00.874Z,57.00
2018-10-21T18:10:13.342Z,57.01
2018-10-21T18:12:25.575Z,57.08
2018-10-21T18:14:37.807Z,57.57
2018-10-21T18:16:50.114Z,57.26
2018-10-21T18:19:02.569Z,58.23
2018-10-21T18:21:15.530Z,58.11
2018-10-21T18:23:27.795Z,58.42
2018-10-21T18:25:40.029Z,58.78
2018-10-21T18:27:52.328Z,59.04
2018-10-21T18:30:05.884Z,59.53
2018-10-21T18:32:18.389Z,58.57
2018-10-21T18:34:31.505Z,59.19
2018-10-21T18:36:43.884Z,59.63
2018-10-21T18:38:56.180Z,59.87
2018-10-21T18:41:08.663Z,59.08
2018-10-21T18:43:20.837Z,59.06
2018-10-21T18:45:33.006Z,59.64
2018-10-21T18:47:45.283Z,59.31
2018-10-21T18:49:57.540Z,59.04
2018-10-21T18:52:10.168Z,59.46
2018-10-21T18:54:22.417Z,60.41
2018-10-21T18:56:34.735Z,60.71
2018-10-21T18:58:47.062Z,60.96
2018-10-21T19:00:59.343Z,60.55
2018-10-21T19:03:11.579Z,60.97
2018-10-21T19:05:23.891Z,61.41
2018-10-21T19:07:36.390Z,61.64
2018-10-21T19:09:48.672Z,61.60
2018-10-21T19:12:00.944Z,61.91
2018-10-21T19:14:13.228Z,61.00
2018-10-21T19:16:25.505Z,61.21
2018-10-21T19:18:37.715Z,61.90
2018-10-21T19:20:49.965Z,61.39
2018-10-21T19:23:02.264Z,61.25
2018-10-21T19:25:15.648Z,61.30
2018-10-21T19:27:27.794Z,62.52
2018-10-21T19:29:40.075Z,62.67
2018-10-21T19:31:52.349Z,62.33
2018-10-21T19:34:05.036Z,62.86
2018-10-21T19:36:17.307Z,63.95
2018-10-21T19:38:29.556Z,64.11
2018-10-21T19:40:41.834Z,63.66
2018-10-21T19:42:54.112Z,62.65
2018-10-21T19:45:07.314Z,62.62
2018-10-21T19:47:19.614Z,63.06
2018-10-21T19:49:31.830Z,62.82
2018-10-21T19:51:44.144Z,62.58
2018-10-21T19:53:56.379Z,62.66
2018-10-21T19:56:08.635Z,63.14
2018-10-21T19:58:20.936Z,63.50
2018-10-21T20:00:33.213Z,63.50
2018-10-21T20:02:45.821Z,64.09
2018-10-21T20:04:58.079Z,64.56
2018-10-21T20:07:10.493Z,64.25
2018-10-21T20:09:22.684Z,64.36
2018-10-21T20:11:34.959Z,63.71
2018-10-21T20:13:47.199Z,64.53
2018-10-21T20:15:59.592Z,64.90
2018-10-21T20:18:11.775Z,63.72
2018-10-21T20:20:24.026Z,64.48
2018-10-21T20:22:36.450Z,64.28
2018-10-21T20:24:48.754Z,64.84
2018-10-21T20:27:01.027Z,65.14
2018-10-21T20:29:13.274Z,65.02
2018-10-21T20:31:25.620Z,65.05
2018-10-21T20:33:37.892Z,65.51
2018-10-21T20:35:50.168Z,66.49
2018-10-21T20:38:02.523Z,65.20
2018-10-21T20:40:14.723Z,65.92
2018-10-21T20:42:26.997Z,66.40
2018-10-21T20:44:39.334Z,65.36
2018-10-21T20:46:51.566Z,66.19
2018-10-21T20:49:03.940Z,66.18
2018-10-21T20:51:16.219Z,66.05
2018-10-21T20:53:28.471Z,65.60
2018-10-21T20:55:40.782Z,66.74
2018-10-21T20:57:53.077Z,66.04
2018-10-21T21:00:05.388Z,66.81
2018-10-21T21:02:17.570Z,66.46
2018-10-21T21:04:29.796Z,66.25
2018-10-21T21:06:42.028Z,65.43
2018-10-21T21:08:54.249Z,65.30
2018-10-21T21:11:07.159Z,66.16
2018-10-21T21:13:19.364Z,65.99
2018-10-21T21:15:31.667Z,65.08
2018-10-21T21:17:43.915Z,65.16
2018-10-21T21:19:56.112Z,65.13
2018-10-21T21:22:08.448Z,65.49
2018-10-21T21:24:20.615Z,65.47
2018-10-21T21:26:32.911Z,66.19
2018-10-21T21:28:45.147Z,65.74
2018-10-21T21:30:57.399Z,65.97
2018-10-21T21:33:09.655Z,65.43
2018-10-21T21:35:21.929Z,66.26
2018-10-21T21:37:34.241Z,66.01
2018-10-21T21:39:46.521Z,65.48
2018-10-21T21:41:58.762Z,66.28
2018-10-21T21:44:11.042Z,66.69
2018-10-21T21:46:23.316Z,66.96
2018-10-21T21:48:35.560Z,67.13
2018-10-21T21:50:47.782Z,66.37
2018-10-21T21:53:00.076Z,66.32
2018-10-21T21:55:12.353Z,66.18
2018-10-21T21:57:24.614Z,67.08
2018-10-21T21:59:36.845Z,66.64
2018-10-21T22:01:49.027Z,67.08
2018-10-21T22:04:01.353Z,68.12
2018-10-21T22:06:13.632Z,68.16
2018-10-21T22:08:25.859Z,69.47
2018-10-21T22:10:38.133Z,69.61
2018-10-21T22:12:50.417Z,69.01
2018-10-21T22:15:02.666Z,69.32
2018-10-21T22:17:14.880Z,69.50
2018-10-21T22:19:27.107Z,68.85
2018-10-21T22:21:39.391Z,69.17
2018-10-21T22:23:51.710Z,69.53
2018-10-21T22:26:04.036Z,70.37
2018-10-21T22:28:16.851Z,70.31
2018-10-21T22:30:28.999Z,70.88
2018-10-21T22:32:41.232Z,70.48
2018-10-21T22:34:53.489Z,70.40
2018-10-21T22:37:05.705Z,69.69
2018-10-21T22:39:17.941Z,70.36
2018-10-21T22:41:30.151Z,69.46
2018-10-21T22:43:42.468Z,69.95
2018-10-21T22:45:54.719Z,69.77
2018-10-21T22:48:06.984Z,68.71
2018-10-21T22:50:19.242Z,68.73
2018-10-21T22:52:31.492Z,68.72
2018-10-21T22:54:43.712Z,69.34
2018-10-21T22:56:55.917Z,69.20
2018-10-21T22:59:08.121Z,68.33
2018-10-21T23:01:20.356Z,68.71
2018-10-21T23:03:32.591Z,67.71
2018-10-21T23:05:44.826Z,68.90
2018-10-21T23:07:57.014Z,68.04
2018-10-21T23:10:09.266Z,68.75
2018-10-21T23:12:21.488Z,68.60
2018-10-21T23:14:33.728Z,68.44
2018-10-21T23:16:45.938Z,69.52
2018-10-21T23:19:09.055Z,69.07
2018-10-21T23:21:21.259Z,69.07
2018-10-21T23:23:33.433Z,68.56
2018-10-21T23:25:45.638Z,68.67
2018-10-21T23:27:57.888Z,68.61
2018-10-21T23:30:10.161Z,68.81
2018-10-21T23:32:22.342Z,68.52
2018-10-21T23:34:34.575Z,68.34
2018-10-21T23:36:46.774Z,68.66
2018-10-21T23:38:59.965Z,67.92
2018-10-21T23:41:12.194Z,68.19
2018-10-21T23:43:24.493Z,68.44
2018-10-21T23:45:36.706Z,68.41
2018-10-21T23:47:48.947Z,68.68
2018-10-21T23:50:01.152Z,67.69
2018-10-21T23:52:13.461Z,67.72
2018-10-21T23:54:25.702Z,67.66
2018-10-21T23:56:38.157Z,68.54
2018-10-21T23:58:50.391Z,68.51
